Time,TemperatureF,DewpointF,PressureIn,WindDirection,WindDirectionDegrees,WindSpeedMPH,WindSpeedGustMPH,Humidity,HourlyPrecipIn,Conditions,Clouds,dailyrainin,SoftwareType,DateUTC
2013-08-08 00:05:00,70.2,70.0,29.98,SSW,198,0.0,1.0,98,0.00,,,0.00,weatherlink.com 1.10,2013-08-08 04:05:00,
2013-08-08 00:20:00,70.2,70.0,29.98,SSW,198,0.0,0.0,98,0.00,,,0.00,weatherlink.com 1.10,2013-08-08 04:20:00,
2013-08-08 00:35:00,70.4,70.0,29.99,SSW,198,0.0,0.0,99,0.00,,,0.00,weatherlink.com 1.10,2013-08-08 04:35:00,
2013-08-08 00:50:00,70.4,70.0,29.99,SSW,198,0.0,0.0,99,0.00,,,0.00,weatherlink.com 1.10,2013-08-08 04:50:00,
2013-08-08 01:05:00,70.3,70.0,29.98,SSW,198,0.0,0.0,99,0.00,,,0.00,weatherlink.com 1.10,2013-08-08 05:05:00,
2013-08-08 01:20:00,70.2,70.0,29.99,SSW,198,0.0,0.0,99,0.00,,,0.00,weatherlink.com 1.10,2013-08-08 05:20:00,
2013-08-08 01:36:00,69.9,70.0,29.98,SSW,198,0.0,0.0,99,0.00,,,0.00,weatherlink.com 1.10,2013-08-08 05:36:00,
2013-08-08 01:50:00,69.7,69.0,29.98,SSW,198,0.0,0.0,98,0.00,,,0.00,weatherlink.com 1.10,2013-08-08 05:50:00,
2013-08-08 02:05:00,69.7,69.0,29.98,SSW,198,0.0,0.0,99,0.00,,,0.00,weatherlink.com 1.10,2013-08-08 06:05:00,
2013-08-08 02:20:00,69.7,69.0,29.98,SSW,198,0.0,0.0,99,0.00,,,0.00,weatherlink.com 1.10,2013-08-08 06:20:00,
2013-08-08 02:35:00,69.6,69.0,29.98,SSW,198,0.0,0.0,99,0.00,,,0.00,weatherlink.com 1.10,2013-08-08 06:35:00,
2013-08-08 02:50:00,69.5,69.0,29.97,SSW,198,0.0,0.0,99,0.00,,,0.00,weatherlink.com 1.10,2013-08-08 06:50:00,
2013-08-08 03:05:00,69.3,69.0,29.97,SSW,198,0.0,0.0,99,0.00,,,0.00,weatherlink.com 1.10,2013-08-08 07:05:00,
2013-08-08 03:20:00,69.1,69.0,29.97,SSW,198,0.0,0.0,98,0.00,,,0.00,weatherlink.com 1.10,2013-08-08 07:20:00,
2013-08-08 03:35:00,68.9,68.0,29.97,SSW,198,0.0,0.0,98,0.00,,,0.00,weatherlink.com 1.10,2013-08-08 07:35:00,
2013-08-08 03:50:00,68.7,68.0,29.96,SSW,198,0.0,0.0,99,0.00,,,0.00,weatherlink.com 1.10,2013-08-08 07:50:00,
2013-08-08 04:06:00,68.4,68.0,29.96,SSW,198,0.0,0.0,98,0.00,,,0.00,weatherlink.com 1.10,2013-08-08 08:06:00,
2013-08-08 04:21:00,68.3,68.0,29.96,SSW,198,0.0,0.0,98,0.00,,,0.00,weatherlink.com 1.10,2013-08-08 08:21:00,
2013-08-08 04:36:00,68.4,68.0,29.96,SSW,198,0.0,0.0,99,0.00,,,0.00,weatherlink.com 1.10,2013-08-08 08:36:00,
2013-08-08 04:51:00,68.3,68.0,29.96,SSW,198,0.0,0.0,99,0.00,,,0.00,weatherlink.com 1.10,2013-08-08 08:51:00,
2013-08-08 05:06:00,68.3,68.0,29.96,SSW,198,0.0,0.0,99,0.00,,,0.00,weatherlink.com 1.10,2013-08-08 09:06:00,
2013-08-08 05:21:00,68.4,68.0,29.95,SSW,198,0.0,0.0,99,0.00,,,0.00,weatherlink.com 1.10,2013-08-08 09:21:00,
2013-08-08 05:36:00,68.4,68.0,29.95,SSW,198,0.0,0.0,99,0.00,,,0.00,weatherlink.com 1.10,2013-08-08 09:36:00,
2013-08-08 05:51:00,68.6,68.0,29.95,SSW,198,0.0,0.0,99,0.00,,,0.00,weatherlink.com 1.10,2013-08-08 09:51:00,
2013-08-08 06:06:00,68.5,68.0,29.96,SSW,198,0.0,0.0,99,0.00,,,0.00,weatherlink.com 1.10,2013-08-08 10:06:00,
2013-08-08 06:21:00,68.3,68.0,29.97,SSW,198,0.0,0.0,99,0.00,,,0.00,weatherlink.com 1.10,2013-08-08 10:21:00,
2013-08-08 06:36:00,67.9,68.0,29.97,SSW,198,0.0,0.0,99,0.00,,,0.00,weatherlink.com 1.10,2013-08-08 10:36:00,
2013-08-08 06:51:00,67.8,68.0,29.98,SSW,198,0.0,0.0,99,0.00,,,0.00,weatherlink.com 1.10,2013-08-08 10:51:00,
2013-08-08 07:06:00,67.8,68.0,29.98,SSW,198,0.0,0.0,99,0.00,,,0.00,weatherlink.com 1.10,2013-08-08 11:06:00,
2013-08-08 07:21:00,67.9,68.0,29.99,SSW,198,0.0,0.0,99,0.00,,,0.00,weatherlink.com 1.10,2013-08-08 11:21:00,
2013-08-08 07:36:00,68.4,68.0,29.98,SSW,198,0.0,0.0,99,0.00,,,0.00,weatherlink.com 1.10,2013-08-08 11:36:00,
2013-08-08 07:51:00,68.8,69.0,29.98,SSW,198,0.0,0.0,99,0.00,,,0.00,weatherlink.com 1.10,2013-08-08 11:51:00,
2013-08-08 08:06:00,69.4,69.0,29.99,SSW,198,0.0,0.0,99,0.00,,,0.00,weatherlink.com 1.10,2013-08-08 12:06:00,
2013-08-08 08:21:00,69.8,70.0,29.99,SSW,198,0.0,0.0,99,0.00,,,0.00,weatherlink.com 1.10,2013-08-08 12:21:00,
2013-08-08 08:36:00,70.3,70.0,29.99,SSW,198,0.0,0.0,99,0.00,,,0.00,weatherlink.com 1.10,2013-08-08 12:36:00,
2013-08-08 08:51:00,70.8,71.0,30.00,SSW,198,0.0,0.0,100,0.00,,,0.00,weatherlink.com 1.10,2013-08-08 12:51:00,
2013-08-08 09:06:00,71.1,71.0,30.00,SSW,198,0.0,0.0,100,0.00,,,0.00,weatherlink.com 1.10,2013-08-08 13:06:00,
2013-08-08 09:21:00,71.5,72.0,30.01,SSW,198,0.0,0.0,100,0.00,,,0.00,weatherlink.com 1.10,2013-08-08 13:21:00,
2013-08-08 09:36:00,71.8,72.0,30.00,SSW,198,0.0,1.0,100,0.00,,,0.00,weatherlink.com 1.10,2013-08-08 13:36:00,
2013-08-08 09:51:00,72.0,72.0,30.01,South,184,0.0,2.0,100,0.00,,,0.00,weatherlink.com 1.10,2013-08-08 13:51:00,
2013-08-08 10:06:00,72.4,72.0,30.02,SSW,195,0.0,1.0,100,0.00,,,0.00,weatherlink.com 1.10,2013-08-08 14:06:00,
2013-08-08 10:21:00,73.1,73.0,30.01,South,186,0.0,0.0,98,0.00,,,0.00,weatherlink.com 1.10,2013-08-08 14:21:00,
2013-08-08 10:36:00,74.2,73.0,30.02,WSW,252,0.0,6.0,97,0.00,,,0.00,weatherlink.com 1.10,2013-08-08 14:36:00,
2013-08-08 10:51:00,74.9,73.0,30.02,SSW,198,0.0,3.0,93,0.00,,,0.00,weatherlink.com 1.10,2013-08-08 14:51:00,
2013-08-08 11:06:00,76.0,74.0,30.02,SSW,195,0.0,1.0,92,0.00,,,0.00,weatherlink.com 1.10,2013-08-08 15:06:00,
2013-08-08 11:21:00,77.6,75.0,30.02,East,84,0.0,4.0,90,0.00,,,0.00,weatherlink.com 1.10,2013-08-08 15:21:00,
2013-08-08 11:36:00,78.5,74.0,30.03,SSW,210,0.0,6.0,86,0.00,,,0.00,weatherlink.com 1.10,2013-08-08 15:36:00,
2013-08-08 11:51:00,79.4,75.0,30.03,SE,146,0.0,4.0,85,0.00,,,0.00,weatherlink.com 1.10,2013-08-08 15:51:00,
2013-08-08 12:07:00,80.3,76.0,30.03,SSW,213,1.0,6.0,85,0.00,,,0.00,weatherlink.com 1.10,2013-08-08 16:07:00,
2013-08-08 12:22:00,80.5,75.0,30.03,SW,217,0.0,3.0,84,0.00,,,0.00,weatherlink.com 1.10,2013-08-08 16:22:00,
2013-08-08 12:37:00,80.6,75.0,30.02,SW,217,0.0,4.0,84,0.00,,,0.00,weatherlink.com 1.10,2013-08-08 16:37:00,
2013-08-08 12:52:00,80.5,76.0,30.02,SSW,205,0.0,2.0,86,0.00,,,0.00,weatherlink.com 1.10,2013-08-08 16:52:00,
2013-08-08 13:07:00,80.4,76.0,30.02,SSW,193,0.0,2.0,86,0.00,,,0.00,weatherlink.com 1.10,2013-08-08 17:07:00,
2013-08-08 13:22:00,80.0,76.0,30.01,WSW,254,0.0,1.0,86,0.00,,,0.00,weatherlink.com 1.10,2013-08-08 17:22:00,
2013-08-08 13:37:00,80.6,77.0,30.00,SW,217,0.0,2.0,87,0.00,,,0.00,weatherlink.com 1.10,2013-08-08 17:37:00,
2013-08-08 13:52:00,80.8,77.0,30.00,SSW,209,0.0,1.0,87,0.00,,,0.00,weatherlink.com 1.10,2013-08-08 17:52:00,
2013-08-08 14:07:00,82.0,76.0,29.99,SW,218,0.0,2.0,83,0.00,,,0.00,weatherlink.com 1.10,2013-08-08 18:07:00,
2013-08-08 14:22:00,82.3,77.0,29.98,South,188,0.0,4.0,83,0.00,,,0.00,weatherlink.com 1.10,2013-08-08 18:22:00,
2013-08-08 14:37:00,80.6,77.0,29.98,SW,221,0.0,0.0,88,0.00,,,0.00,weatherlink.com 1.10,2013-08-08 18:37:00,
2013-08-08 14:52:00,80.7,77.0,29.98,South,179,0.0,0.0,87,0.00,,,0.00,weatherlink.com 1.10,2013-08-08 18:52:00,
2013-08-08 15:07:00,82.3,77.0,29.97,South,177,0.0,0.0,83,0.00,,,0.00,weatherlink.com 1.10,2013-08-08 19:07:00,
2013-08-08 15:22:00,82.9,77.0,29.96,East,96,0.0,0.0,83,0.00,,,0.00,weatherlink.com 1.10,2013-08-08 19:22:00,
2013-08-08 15:37:00,83.8,77.0,29.96,East,96,0.0,0.0,81,0.00,,,0.00,weatherlink.com 1.10,2013-08-08 19:37:00,
2013-08-08 15:52:00,84.9,79.0,29.96,East,93,0.0,0.0,81,0.00,,,0.00,weatherlink.com 1.10,2013-08-08 19:52:00,
2013-08-08 16:07:00,84.7,78.0,29.96,SE,138,0.0,0.0,79,0.00,,,0.00,weatherlink.com 1.10,2013-08-08 20:07:00,
2013-08-08 16:22:00,82.4,79.0,29.96,SE,137,0.0,0.0,88,0.08,,,0.08,weatherlink.com 1.10,2013-08-08 20:22:00,
2013-08-08 16:37:00,79.4,77.0,29.97,ENE,59,0.0,0.0,92,0.25,,,0.25,weatherlink.com 1.10,2013-08-08 20:37:00,
2013-08-08 16:53:00,75.8,72.0,29.97,SSE,166,0.0,4.0,89,0.83,,,0.83,weatherlink.com 1.10,2013-08-08 20:53:00,
2013-08-08 17:07:00,73.6,72.0,29.97,WNW,296,0.0,1.0,95,1.01,,,1.01,weatherlink.com 1.10,2013-08-08 21:07:00,
2013-08-08 17:22:00,73.5,73.0,29.97,North,355,0.0,1.0,97,0.92,,,1.01,weatherlink.com 1.10,2013-08-08 21:22:00,
2013-08-08 17:52:00,73.0,72.0,30.00,NW,326,1.0,3.0,97,0.20,,,1.01,weatherlink.com 1.10,2013-08-08 21:52:00,
2013-08-08 18:07:00,72.5,72.0,29.99,WSW,244,2.0,6.0,97,0.00,,,1.01,weatherlink.com 1.10,2013-08-08 22:07:00,
2013-08-08 18:22:00,71.8,71.0,30.00,West,271,0.0,3.0,97,0.08,,,1.09,weatherlink.com 1.10,2013-08-08 22:22:00,
2013-08-08 18:37:00,70.8,70.0,30.01,WSW,242,0.0,2.0,97,0.31,,,1.32,weatherlink.com 1.10,2013-08-08 22:37:00,
2013-08-08 18:52:00,70.3,69.0,29.98,SW,234,0.0,2.0,97,0.42,,,1.43,weatherlink.com 1.10,2013-08-08 22:52:00,
2013-08-08 19:22:00,70.2,70.0,29.99,WSW,238,1.0,5.0,98,0.37,,,1.48,weatherlink.com 1.10,2013-08-08 23:22:00,
2013-08-08 19:53:00,70.1,70.0,30.00,WSW,240,0.0,3.0,98,0.05,,,1.48,weatherlink.com 1.10,2013-08-08 23:53:00,
2013-08-08 20:07:00,70.0,69.0,29.99,WSW,240,0.0,0.0,98,0.02,,,1.49,weatherlink.com 1.10,2013-08-09 00:07:00,
2013-08-08 20:22:00,69.9,69.0,29.99,WSW,240,0.0,0.0,98,0.01,,,1.49,weatherlink.com 1.10,2013-08-09 00:22:00,
2013-08-08 20:37:00,69.9,69.0,30.00,WSW,240,0.0,1.0,98,0.02,,,1.50,weatherlink.com 1.10,2013-08-09 00:37:00,
2013-08-08 20:52:00,69.6,69.0,30.00,WSW,240,0.0,0.0,98,0.03,,,1.51,weatherlink.com 1.10,2013-08-09 00:52:00,
2013-08-08 21:07:00,69.4,69.0,30.00,South,190,0.0,4.0,98,0.02,,,1.51,weatherlink.com 1.10,2013-08-09 01:07:00,
2013-08-08 21:37:00,69.6,69.0,29.99,SSW,192,0.0,0.0,98,0.02,,,1.52,weatherlink.com 1.10,2013-08-09 01:37:00,
2013-08-08 21:52:00,69.5,69.0,29.99,SSW,192,0.0,0.0,98,0.01,,,1.52,weatherlink.com 1.10,2013-08-09 01:52:00,
2013-08-08 22:07:00,69.4,69.0,29.99,SSW,192,0.0,0.0,98,0.01,,,1.52,weatherlink.com 1.10,2013-08-09 02:07:00,
2013-08-08 22:52:00,69.2,69.0,30.00,SSW,192,0.0,0.0,99,0.00,,,1.52,weatherlink.com 1.10,2013-08-09 02:52:00,
2013-08-08 23:07:00,69.0,69.0,30.00,SSW,192,0.0,0.0,98,0.00,,,1.52,weatherlink.com 1.10,2013-08-09 03:07:00,
2013-08-08 23:22:00,68.9,68.0,29.99,SSW,192,0.0,0.0,98,0.00,,,1.52,weatherlink.com 1.10,2013-08-09 03:22:00,
2013-08-08 23:52:00,68.5,68.0,29.98,SSW,192,0.0,0.0,98,0.00,,,1.52,weatherlink.com 1.10,2013-08-09 03:52:00,